Time;durP1;ratioP1;P1;durP2;ratioP2;P2;SDS_P1;SDS_P2;PMS_P1;PMS_P2;Temp;Humidity;BMP_temperature;BMP_pressure;BME280_temperature;BME280_humidity;BME280_pressure;Samples;Min_cycle;Max_cycle;Signal;HPM_P1;HPM_P2
2023/05/22 00:00:22;;;;;;;116.25;83.80;;;16.60;99.90;;;;;;4974562;28;20044;-77
2023/05/22 00:02:51;;;;;;;69.80;62.75;;;16.60;99.90;;;;;;4984497;28;20057;-77
2023/05/22 00:05:17;;;;;;;96.75;76.03;;;16.60;99.90;;;;;;4971610;28;20042;-77
2023/05/22 00:07:45;;;;;;;96.30;69.43;;;16.60;99.90;;;;;;4980251;28;20041;-77
2023/05/22 00:10:32;;;;;;;100.10;84.20;;;16.70;99.90;;;;;;4979741;28;20045;-78
2023/05/22 00:13:03;;;;;;;97.75;76.30;;;16.60;99.90;;;;;;4978925;28;20041;-78
2023/05/22 00:15:31;;;;;;;95.55;77.43;;;16.60;99.90;;;;;;4980347;28;20068;-78
2023/05/22 00:18:12;;;;;;;67.78;60.65;;;16.60;99.90;;;;;;4979202;28;20062;-79
2023/05/22 00:20:53;;;;;;;71.78;64.40;;;16.70;99.90;;;;;;4982914;28;20038;-78
2023/05/22 00:23:37;;;;;;;78.75;70.18;;;16.70;99.90;;;;;;4983785;28;20505;-78
2023/05/22 00:26:06;;;;;;;102.80;83.35;;;16.60;99.90;;;;;;4996931;28;20518;-78
2023/05/22 00:28:38;;;;;;;73.20;66.07;;;16.50;99.90;;;;;;4976954;28;20136;-78
2023/05/22 00:31:15;;;;;;;97.43;78.32;;;16.60;99.90;;;;;;4980297;28;20128;-78
2023/05/22 00:33:46;;;;;;;151.73;83.65;;;16.50;99.90;;;;;;4967184;28;20125;-78
2023/05/22 00:36:15;;;;;;;76.22;66.32;;;16.60;99.90;;;;;;4977473;28;20519;-78
2023/05/22 00:38:47;;;;;;;160.00;101.63;;;16.40;99.90;;;;;;4985436;28;20056;-78
2023/05/22 00:41:20;;;;;;;60.95;55.10;;;16.50;99.90;;;;;;4992489;28;20487;-78
2023/05/22 00:43:50;;;;;;;60.13;54.30;;;16.50;99.90;;;;;;5018039;28;20097;-78
2023/05/22 00:46:20;;;;;;;71.05;63.55;;;16.50;99.90;;;;;;5004317;28;20037;-79
2023/05/22 00:48:47;;;;;;;79.90;71.32;;;16.50;99.90;;;;;;5017270;28;20091;-78
2023/05/22 00:51:21;;;;;;;69.30;62.80;;;16.50;99.90;;;;;;4997087;28;20042;-78
2023/05/22 00:53:59;;;;;;;109.90;84.13;;;16.40;99.90;;;;;;4981470;28;20045;-79
2023/05/22 00:56:28;;;;;;;113.20;89.00;;;16.40;99.90;;;;;;4997374;28;20423;-78
2023/05/22 00:59:06;;;;;;;124.53;84.80;;;16.40;99.90;;;;;;5003018;28;20479;-78
2023/05/22 01:01:41;;;;;;;99.85;88.68;;;16.40;99.90;;;;;;5000257;28;20042;-78
2023/05/22 01:04:20;;;;;;;70.38;63.55;;;16.30;99.90;;;;;;4982665;28;20471;-79
2023/05/22 01:06:46;;;;;;;75.80;68.40;;;16.30;99.90;;;;;;4980001;28;20046;-79
2023/05/22 01:09:15;;;;;;;77.95;70.22;;;16.40;99.90;;;;;;4985274;28;20128;-78
2023/05/22 01:11:57;;;;;;;76.60;69.15;;;16.50;99.90;;;;;;5000029;28;20451;-79
2023/05/22 01:14:31;;;;;;;72.55;65.68;;;16.50;99.90;;;;;;4996789;28;20045;-79
2023/05/22 01:17:27;;;;;;;68.70;62.35;;;16.40;99.90;;;;;;4996689;28;20077;-79
2023/05/22 01:20:23;;;;;;;69.45;62.78;;;16.40;99.90;;;;;;5023281;28;20415;-79
2023/05/22 01:23:26;;;;;;;74.10;66.72;;;16.40;99.90;;;;;;4998614;28;20052;-78
2023/05/22 01:26:20;;;;;;;91.88;76.25;;;16.40;99.90;;;;;;5015165;28;20076;-77
2023/05/22 01:28:58;;;;;;;75.07;67.68;;;16.40;99.90;;;;;;4998557;28;20049;-78
2023/05/22 01:31:33;;;;;;;74.45;66.97;;;16.40;99.90;;;;;;5003441;28;20041;-78
2023/05/22 01:34:01;;;;;;;67.82;60.65;;;16.40;99.90;;;;;;4980598;28;20044;-78
2023/05/22 01:36:36;;;;;;;126.32;78.85;;;16.30;99.90;;;;;;4980621;28;20041;-78
2023/05/22 01:39:05;;;;;;;102.30;74.13;;;16.30;99.90;;;;;;5012777;28;20085;-78
2023/05/22 01:41:37;;;;;;;56.65;51.55;;;16.20;99.90;;;;;;4979155;28;20030;-77
2023/05/22 01:44:08;;;;;;;61.75;55.40;;;16.20;99.90;;;;;;5012514;28;20077;-78
2023/05/22 01:46:45;;;;;;;84.53;68.32;;;16.10;99.90;;;;;;4996506;28;20037;-78
2023/05/22 01:49:15;;;;;;;75.43;65.65;;;16.10;99.90;;;;;;4992191;28;20386;-78
2023/05/22 01:52:08;;;;;;;76.80;69.07;;;16.10;99.90;;;;;;4994627;28;20045;-78
2023/05/22 01:54:45;;;;;;;74.40;66.60;;;16.10;99.90;;;;;;4966886;28;20046;-78
2023/05/22 01:57:26;;;;;;;77.95;69.72;;;16.10;99.90;;;;;;4976776;28;20113;-78
2023/05/22 02:00:08;;;;;;;86.57;77.32;;;16.10;99.90;;;;;;4983716;28;20069;-78
2023/05/22 02:02:39;;;;;;;79.32;71.32;;;16.10;99.90;;;;;;5006800;28;20106;-79
2023/05/22 02:05:10;;;;;;;81.75;72.95;;;16.20;99.90;;;;;;4979685;28;20070;-78
2023/05/22 02:07:38;;;;;;;100.82;85.22;;;16.10;99.90;;;;;;4996704;28;20377;-78
2023/05/22 02:10:11;;;;;;;104.95;87.40;;;16.10;99.90;;;;;;4968231;28;20124;-78
2023/05/22 02:12:46;;;;;;;63.58;57.90;;;16.10;99.90;;;;;;5009637;28;20508;-78
2023/05/22 02:15:15;;;;;;;83.38;74.95;;;16.00;99.90;;;;;;4974994;28;20045;-79
2023/05/22 02:17:51;;;;;;;83.93;75.63;;;16.10;99.90;;;;;;4980363;28;20076;-78
2023/05/22 02:20:17;;;;;;;80.32;72.20;;;16.00;99.90;;;;;;4971455;28;20057;-77
2023/05/22 02:22:56;;;;;;;81.80;73.55;;;16.10;99.90;;;;;;4995715;28;20095;-78
2023/05/22 02:25:21;;;;;;;80.65;72.25;;;16.00;99.90;;;;;;4995967;28;20091;-78
2023/05/22 02:27:52;;;;;;;66.30;60.13;;;16.00;99.90;;;;;;4980246;28;20128;-78
2023/05/22 02:30:18;;;;;;;185.82;104.53;;;16.10;99.90;;;;;;4970786;28;20049;-78
2023/05/22 02:32:50;;;;;;;85.00;73.82;;;15.90;99.90;;;;;;4978910;28;20133;-78
2023/05/22 02:35:21;;;;;;;85.95;74.13;;;16.00;99.90;;;;;;4979727;28;20045;-78
2023/05/22 02:37:49;;;;;;;80.63;72.80;;;15.90;99.90;;;;;;4983473;28;20260;-79
2023/05/22 02:40:20;;;;;;;72.25;64.75;;;16.00;99.90;;;;;;4997842;28;20045;-78
2023/05/22 02:42:49;;;;;;;58.67;53.58;;;15.90;99.90;;;;;;4997798;28;20041;-78
2023/05/22 02:45:18;;;;;;;78.07;68.60;;;15.90;99.90;;;;;;5002087;28;20045;-78
2023/05/22 02:47:47;;;;;;;147.52;90.40;;;15.90;99.90;;;;;;5018853;28;20120;-78
2023/05/22 02:50:16;;;;;;;78.15;66.28;;;15.90;99.90;;;;;;5000621;28;20137;-78
2023/05/22 02:52:45;;;;;;;163.40;103.32;;;15.90;99.90;;;;;;5010689;28;20385;-78
2023/05/22 02:55:10;;;;;;;104.70;85.38;;;15.80;99.90;;;;;;5015201;28;20045;-78
2023/05/22 02:57:36;;;;;;;88.80;79.20;;;15.80;99.90;;;;;;5000719;28;20042;-79
2023/05/22 03:00:11;;;;;;;79.97;72.28;;;15.90;99.90;;;;;;5000508;28;20069;-79
2023/05/22 03:02:39;;;;;;;185.88;117.60;;;15.80;99.90;;;;;;5017359;28;20323;-78
2023/05/22 03:05:06;;;;;;;208.32;107.43;;;15.80;99.90;;;;;;5017615;28;20034;-79
2023/05/22 03:07:47;;;;;;;130.55;98.13;;;15.80;99.90;;;;;;5015943;28;20041;-79
2023/05/22 03:10:13;;;;;;;84.00;76.07;;;15.90;99.90;;;;;;4999774;28;20492;-79
2023/05/22 03:12:39;;;;;;;87.55;78.85;;;15.90;99.90;;;;;;5000567;28;20096;-79
2023/05/22 03:15:21;;;;;;;85.20;77.32;;;15.90;99.90;;;;;;5017108;28;20587;-79
2023/05/22 03:17:55;;;;;;;94.72;82.22;;;16.00;99.90;;;;;;5016881;28;20045;-79
2023/05/22 03:20:23;;;;;;;92.00;82.53;;;16.00;99.90;;;;;;4997883;28;20049;-79
2023/05/22 03:22:49;;;;;;;100.72;90.22;;;16.00;99.90;;;;;;5000301;28;20506;-79
2023/05/22 03:25:20;;;;;;;94.15;84.72;;;16.00;99.90;;;;;;5016444;28;20057;-78
2023/05/22 03:27:46;;;;;;;97.93;87.85;;;16.10;99.90;;;;;;5016866;28;20068;-78
2023/05/22 03:30:13;;;;;;;98.68;88.75;;;16.00;99.90;;;;;;5000494;28;20080;-79
2023/05/22 03:32:39;;;;;;;98.43;87.97;;;16.00;99.90;;;;;;5019610;28;20125;-79
2023/05/22 03:35:18;;;;;;;105.57;93.55;;;16.00;99.90;;;;;;4993973;28;20136;-78
2023/05/22 03:37:45;;;;;;;106.55;94.70;;;16.00;99.90;;;;;;5000393;28;20049;-79
2023/05/22 03:40:22;;;;;;;101.03;91.00;;;16.00;99.90;;;;;;4999623;28;20053;-78
2023/05/22 03:42:53;;;;;;;96.70;87.07;;;16.00;99.90;;;;;;5000174;28;20037;-79
2023/05/22 03:45:24;;;;;;;122.20;106.07;;;16.00;99.90;;;;;;5000336;28;20491;-79
2023/05/22 03:47:55;;;;;;;132.02;107.72;;;16.00;99.90;;;;;;4998829;28;20042;-78
2023/05/22 03:50:21;;;;;;;113.10;101.05;;;16.00;99.90;;;;;;4999697;28;20041;-79
2023/05/22 03:52:50;;;;;;;142.38;116.65;;;15.90;99.90;;;;;;4999825;28;20423;-79
2023/05/22 03:55:19;;;;;;;100.63;90.95;;;16.00;99.90;;;;;;5000000;28;20492;-79
2023/05/22 03:57:48;;;;;;;103.53;90.13;;;15.90;99.90;;;;;;4999094;28;20575;-78
2023/05/22 04:00:15;;;;;;;90.40;80.97;;;15.90;99.90;;;;;;4999774;28;20121;-78
2023/05/22 04:02:43;;;;;;;78.72;71.20;;;15.90;99.90;;;;;;5016396;28;20059;-78
2023/05/22 04:05:14;;;;;;;80.60;72.47;;;15.90;99.90;;;;;;5000093;28;20455;-78
2023/05/22 04:07:40;;;;;;;87.75;78.57;;;15.90;99.90;;;;;;5015341;28;20455;-78
2023/05/22 04:10:21;;;;;;;119.93;93.22;;;15.80;99.90;;;;;;4997053;28;20432;-78
2023/05/22 04:12:47;;;;;;;120.28;93.22;;;15.80;99.90;;;;;;4991519;28;20124;-78
2023/05/22 04:15:12;;;;;;;84.85;75.85;;;15.80;99.90;;;;;;4993286;28;20129;-78
2023/05/22 04:17:42;;;;;;;97.00;86.93;;;15.70;99.90;;;;;;5009281;28;20077;-78
2023/05/22 04:20:11;;;;;;;89.43;80.60;;;15.70;99.90;;;;;;4994320;28;20143;-79
2023/05/22 04:22:44;;;;;;;93.70;83.40;;;15.80;99.90;;;;;;4985480;28;20050;-78
2023/05/22 04:25:10;;;;;;;118.30;91.20;;;15.80;99.90;;;;;;4987647;28;20044;-78
2023/05/22 04:27:43;;;;;;;179.20;127.00;;;15.70;99.90;;;;;;4993171;28;20038;-78
2023/05/22 04:30:15;;;;;;;82.60;74.78;;;15.80;99.90;;;;;;4990636;28;20498;-78
2023/05/22 04:32:42;;;;;;;112.55;94.22;;;15.80;99.90;;;;;;5001135;28;20046;-79
2023/05/22 04:35:08;;;;;;;86.60;78.03;;;15.80;99.90;;;;;;4995776;28;20088;-78
2023/05/22 04:37:35;;;;;;;108.53;88.93;;;15.80;99.90;;;;;;5001656;28;20045;-78
2023/05/22 04:40:06;;;;;;;92.35;81.35;;;15.80;99.90;;;;;;4998540;28;20076;-78
2023/05/22 04:42:36;;;;;;;82.78;75.40;;;15.80;99.90;;;;;;4999322;28;20043;-78
2023/05/22 04:45:02;;;;;;;79.03;71.55;;;15.80;99.90;;;;;;5015211;28;20096;-78
2023/05/22 04:47:31;;;;;;;78.53;71.65;;;15.80;99.90;;;;;;5014412;28;20443;-78
2023/05/22 04:49:58;;;;;;;165.80;111.63;;;15.90;99.90;;;;;;4994376;28;20049;-78
2023/05/22 04:52:25;;;;;;;111.55;90.03;;;15.90;99.90;;;;;;5005034;28;20116;-78
2023/05/22 04:54:51;;;;;;;87.43;78.57;;;15.80;99.90;;;;;;4994730;28;20043;-78
2023/05/22 04:57:18;;;;;;;94.35;84.03;;;15.90;99.90;;;;;;5009098;28;20114;-78
2023/05/22 04:59:46;;;;;;;122.05;102.43;;;15.90;99.90;;;;;;5003091;28;20447;-78
2023/05/22 05:02:11;;;;;;;106.53;89.07;;;15.90;99.90;;;;;;4996504;28;20492;-78
2023/05/22 05:04:45;;;;;;;163.15;108.22;;;16.00;99.90;;;;;;5004447;28;20048;-78
2023/05/22 05:07:12;;;;;;;109.15;97.15;;;16.00;99.90;;;;;;4988573;28;20046;-78
2023/05/22 05:09:38;;;;;;;97.55;87.30;;;16.00;99.90;;;;;;5012700;28;20518;-78
2023/05/22 05:12:04;;;;;;;100.18;89.68;;;16.10;99.90;;;;;;5015043;28;20047;-78
2023/05/22 05:14:32;;;;;;;134.00;101.45;;;16.00;99.90;;;;;;4996868;28;20585;-78
2023/05/22 05:16:58;;;;;;;103.30;92.05;;;16.10;99.90;;;;;;4988735;28;20046;-78
2023/05/22 05:19:24;;;;;;;137.05;106.82;;;16.10;99.90;;;;;;4990581;28;20033;-78
2023/05/22 05:21:55;;;;;;;108.30;94.40;;;16.10;99.90;;;;;;4994149;28;20044;-79
2023/05/22 05:24:21;;;;;;;103.25;92.25;;;16.10;99.90;;;;;;4998344;28;20171;-78
2023/05/22 05:26:48;;;;;;;108.30;95.47;;;16.20;99.90;;;;;;4996562;28;20474;-78
2023/05/22 05:29:14;;;;;;;113.65;95.70;;;16.20;99.90;;;;;;4994316;28;20404;-78
2023/05/22 05:31:40;;;;;;;99.55;88.75;;;16.20;99.90;;;;;;4997906;28;20042;-78
2023/05/22 05:34:06;;;;;;;117.38;97.70;;;16.30;99.90;;;;;;4989327;28;20120;-79
2023/05/22 05:36:37;;;;;;;102.53;91.70;;;16.30;99.90;;;;;;4998064;28;20127;-77
2023/05/22 05:39:03;;;;;;;91.40;82.45;;;16.30;99.90;;;;;;4989146;28;20503;-77
2023/05/22 05:41:29;;;;;;;117.05;94.38;;;16.30;99.90;;;;;;4987270;28;20042;-79
2023/05/22 05:44:00;;;;;;;103.00;87.40;;;16.30;99.90;;;;;;5006779;28;20038;-79
2023/05/22 05:46:54;;;;;;;;;;;;;;;;;;;;;
2023/05/22 05:49:35;;;;;;;100.20;86.18;;;16.40;99.90;;;;;;4995236;28;20052;-79
2023/05/22 05:52:12;;;;;;;100.70;87.43;;;16.40;99.90;;;;;;4995407;28;20041;-78
2023/05/22 05:55:24;;;;;;;84.85;76.35;;;16.50;99.90;;;;;;4992489;28;20045;-79
2023/05/22 05:58:29;;;;;;;95.63;86.00;;;16.50;99.90;;;;;;5012232;28;20119;-79
2023/05/22 06:01:29;;;;;;;84.53;76.53;;;16.60;99.90;;;;;;4989060;28;20323;-79
2023/05/22 06:08:14;;;;;;;73.65;67.07;;;16.80;99.90;;;;;;4990719;28;20413;-78
2023/05/22 06:11:31;;;;;;;71.38;65.10;;;16.90;99.90;;;;;;4985264;28;20042;-78
2023/05/22 06:14:20;;;;;;;69.00;62.92;;;17.10;99.90;;;;;;5005301;28;20045;-79
2023/05/22 06:21:13;;;;;;;75.88;68.43;;;17.50;99.90;;;;;;5029515;28;20520;-79
2023/05/22 06:27:53;;;;;;;62.35;56.97;;;17.90;99.90;;;;;;5013809;28;20073;-78
2023/05/22 06:30:28;;;;;;;57.80;53.10;;;18.00;99.90;;;;;;4993463;28;20033;-79
2023/05/22 06:32:57;;;;;;;61.30;56.20;;;18.10;99.90;;;;;;4973993;28;20432;-79
2023/05/22 06:35:28;;;;;;;56.95;52.25;;;18.10;99.90;;;;;;4997333;28;20590;-80
2023/05/22 06:38:03;;;;;;;52.95;48.53;;;18.10;99.90;;;;;;4992200;28;20488;-77
2023/05/22 06:40:57;;;;;;;60.72;55.72;;;18.10;99.90;;;;;;4991656;28;20044;-78
2023/05/22 06:43:30;;;;;;;56.33;51.53;;;18.10;99.90;;;;;;4996778;28;20117;-78
2023/05/22 06:46:11;;;;;;;62.15;56.55;;;18.00;99.90;;;;;;5012546;28;20531;-78
2023/05/22 06:48:58;;;;;;;52.08;47.83;;;18.10;99.90;;;;;;4997676;28;20041;-79
2023/05/22 06:51:50;;;;;;;54.55;49.72;;;18.10;99.90;;;;;;4969906;28;20046;-79
2023/05/22 06:54:28;;;;;;;56.92;52.13;;;18.20;99.90;;;;;;4974867;28;20050;-79
2023/05/22 06:57:20;;;;;;;56.22;51.53;;;18.00;99.90;;;;;;4980263;28;20049;-79
2023/05/22 07:00:11;;;;;;;53.47;49.08;;;17.90;99.90;;;;;;4982487;28;20089;-79
2023/05/22 07:02:55;;;;;;;;;;;;;;;;;;;;;
2023/05/22 07:05:39;;;;;;;49.58;45.42;;;17.90;99.90;;;;;;5031030;28;20049;-79
2023/05/22 07:08:33;;;;;;;46.28;42.53;;;17.90;99.90;;;;;;5004851;28;20419;-79
2023/05/22 07:11:47;;;;;;;41.78;38.28;;;17.80;99.90;;;;;;5013450;28;20038;-80
2023/05/22 07:14:41;;;;;;;47.25;43.33;;;17.90;99.90;;;;;;5010123;28;20120;-79
2023/05/22 07:17:26;;;;;;;41.70;38.15;;;17.80;99.90;;;;;;5020882;28;20072;-80
2023/05/22 07:20:04;;;;;;;44.15;40.08;;;17.90;99.90;;;;;;5001293;28;20522;-79
2023/05/22 07:22:57;;;;;;;44.47;40.75;;;17.80;99.90;;;;;;4989076;28;20069;-79
2023/05/22 07:29:00;;;;;;;37.55;34.40;;;17.90;99.90;;;;;;5031460;28;20042;-80
2023/05/22 07:31:33;;;;;;;42.00;38.42;;;17.90;99.90;;;;;;5007286;28;20041;-79
2023/05/22 07:34:16;;;;;;;36.05;32.72;;;17.80;99.90;;;;;;5007679;28;20124;-79
2023/05/22 07:40:06;;;;;;;38.33;35.15;;;17.80;99.90;;;;;;4974976;28;20050;-79
2023/05/22 07:42:55;;;;;;;35.42;32.17;;;17.80;99.90;;;;;;4984679;28;20053;-79
2023/05/22 07:45:43;;;;;;;33.20;30.45;;;17.90;99.90;;;;;;5009228;28;20046;-80
2023/05/22 07:48:32;;;;;;;33.88;30.92;;;18.10;99.90;;;;;;5000939;28;20105;-79
2023/05/22 07:51:10;;;;;;;32.63;29.70;;;18.10;99.90;;;;;;5001995;28;20508;-80
2023/05/22 07:53:43;;;;;;;32.92;29.90;;;18.10;99.90;;;;;;4977847;28;20051;-79
2023/05/22 07:56:27;;;;;;;31.40;28.60;;;18.10;99.90;;;;;;4991435;28;20047;-79
2023/05/22 07:59:32;;;;;;;31.00;28.33;;;18.10;99.90;;;;;;5003469;28;20081;-79
2023/05/22 08:02:08;;;;;;;28.13;25.63;;;18.30;99.90;;;;;;4986934;28;20064;-79
2023/05/22 08:05:03;;;;;;;28.30;25.98;;;18.40;99.90;;;;;;4990808;28;20049;-79
2023/05/22 08:07:46;;;;;;;26.88;24.42;;;18.60;99.90;;;;;;5014002;28;20124;-79
2023/05/22 08:10:52;;;;;;;26.92;24.63;;;18.80;99.90;;;;;;4991180;28;20089;-80
2023/05/22 08:13:37;;;;;;;26.65;24.35;;;19.20;99.90;;;;;;4993066;28;20100;-79
2023/05/22 08:16:27;;;;;;;26.20;23.52;;;19.50;99.90;;;;;;4989195;28;20081;-80
2023/05/22 08:19:13;;;;;;;25.17;23.00;;;19.70;99.90;;;;;;5004454;28;20382;-79
2023/05/22 08:25:00;;;;;;;24.33;22.10;;;19.90;99.90;;;;;;4990602;28;20524;-79
2023/05/22 08:34:04;;;;;;;;;;;;;;;;;;;;;
2023/05/22 08:37:23;;;;;;;;;;;;;;;;;;;;;
2023/05/22 08:40:12;;;;;;;20.60;18.60;;;21.60;99.90;;;;;;5003589;28;20045;-79
2023/05/22 08:42:47;;;;;;;21.42;19.05;;;22.40;99.90;;;;;;4961295;28;20237;-78
2023/05/22 08:45:18;;;;;;;21.15;19.15;;;23.10;99.90;;;;;;4960681;28;20049;-79
2023/05/22 08:48:07;;;;;;;19.10;17.35;;;23.60;99.90;;;;;;4961260;28;20041;-79
2023/05/22 08:50:48;;;;;;;18.27;16.42;;;24.10;99.90;;;;;;4970698;28;20065;-79
2023/05/22 08:53:46;;;;;;;19.30;15.38;;;24.20;99.90;;;;;;4980799;28;20049;-78
2023/05/22 08:56:23;;;;;;;18.00;16.20;;;24.20;99.90;;;;;;4978869;28;20567;-79
2023/05/22 08:58:58;;;;;;;17.10;14.90;;;24.40;99.90;;;;;;4980253;28;20450;-79
2023/05/22 09:01:51;;;;;;;18.92;13.88;;;24.70;99.90;;;;;;4973986;28;20050;-79
2023/05/22 09:04:22;;;;;;;18.75;14.45;;;25.00;99.90;;;;;;4971830;28;20053;-79
2023/05/22 09:07:04;;;;;;;16.13;13.38;;;25.20;99.90;;;;;;4995975;28;20042;-79
2023/05/22 09:09:45;;;;;;;15.50;13.40;;;25.40;99.90;;;;;;4979962;28;20042;-79
2023/05/22 09:12:31;;;;;;;17.05;13.68;;;25.50;99.90;;;;;;5008790;28;20058;-78
2023/05/22 09:15:29;;;;;;;16.58;13.45;;;25.10;99.90;;;;;;4993385;28;20042;-79
2023/05/22 09:18:12;;;;;;;14.43;12.88;;;24.30;99.90;;;;;;4970891;28;20050;-79
2023/05/22 09:21:04;;;;;;;;;;;23.90;99.90;;;;;;4976591;28;20034;-79
2023/05/22 09:23:53;;;;;;;15.23;13.63;;;23.50;99.90;;;;;;4975691;28;20106;-79
2023/05/22 09:26:41;;;;;;;18.23;15.32;;;23.40;99.90;;;;;;4973793;28;20193;-79
2023/05/22 09:29:21;;;;;;;16.33;14.18;;;23.10;99.90;;;;;;4975455;28;20046;-79
2023/05/22 09:31:58;;;;;;;15.95;14.27;;;22.90;99.90;;;;;;4978377;28;20103;-79
2023/05/22 09:34:51;;;;;;;17.58;14.40;;;22.90;99.90;;;;;;4978950;28;20050;-79
2023/05/22 09:37:45;;;;;;;;;;;;;;;;;;;;;
2023/05/22 09:40:28;;;;;;;16.55;14.85;;;23.00;99.90;;;;;;5017801;28;20073;-78
2023/05/22 09:42:54;;;;;;;17.25;15.45;;;23.20;99.90;;;;;;4997805;28;20045;-78
2023/05/22 09:45:26;;;;;;;16.13;14.25;;;23.60;99.90;;;;;;5013609;28;20104;-79
2023/05/22 09:48:03;;;;;;;16.52;14.73;;;24.00;99.90;;;;;;4998860;28;20033;-79
2023/05/22 09:51:03;;;;;;;16.35;14.68;;;24.20;99.90;;;;;;5031101;28;20055;-79
2023/05/22 09:53:35;;;;;;;17.80;14.25;;;24.60;99.90;;;;;;4990446;28;20499;-80
2023/05/22 09:56:15;;;;;;;17.03;14.57;;;24.70;99.90;;;;;;4989646;28;20049;-78
2023/05/22 09:58:51;;;;;;;16.10;14.07;;;24.80;99.90;;;;;;4970641;28;20219;-79
2023/05/22 10:01:24;;;;;;;15.60;14.02;;;25.00;99.90;;;;;;4997060;28;20286;-79
2023/05/22 10:04:00;;;;;;;19.02;14.63;;;25.10;99.90;;;;;;4998428;28;20052;-79
2023/05/22 10:06:35;;;;;;;16.75;14.02;;;25.30;99.90;;;;;;5012975;28;20128;-78
2023/05/22 10:09:20;;;;;;;15.52;13.77;;;25.40;99.90;;;;;;4998228;28;20064;-79
2023/05/22 10:12:02;;;;;;;16.30;14.63;;;25.50;99.90;;;;;;4997884;28;20049;-78
2023/05/22 10:14:55;;;;;;;16.40;14.45;;;25.70;99.90;;;;;;4998912;28;20052;-79
2023/05/22 10:17:41;;;;;;;15.98;14.38;;;26.00;99.90;;;;;;4996939;28;20037;-79
2023/05/22 10:20:13;;;;;;;14.90;13.45;;;26.30;95.40;;;;;;4997881;28;20080;-79
2023/05/22 10:23:10;;;;;;;15.77;14.20;;;26.40;97.80;;;;;;4998343;28;20042;-79
2023/05/22 10:25:44;;;;;;;16.20;14.50;;;26.60;95.40;;;;;;4997998;28;20365;-78
2023/05/22 10:28:37;;;;;;;17.13;14.73;;;26.50;99.90;;;;;;4989457;28;20068;-79
2023/05/22 10:31:21;;;;;;;16.33;14.88;;;27.00;94.30;;;;;;4997866;28;20128;-79
2023/05/22 10:34:04;;;;;;;18.67;15.10;;;27.10;85.50;;;;;;4998122;28;20125;-79
2023/05/22 10:36:52;;;;;;;17.38;15.55;;;27.30;93.30;;;;;;4997715;28;20046;-79
2023/05/22 10:39:53;;;;;;;16.92;15.43;;;27.80;78.80;;;;;;5009717;28;20054;-79
2023/05/22 10:42:22;;;;;;;17.13;15.55;;;27.80;82.70;;;;;;4997265;28;20045;-79
2023/05/22 10:45:00;;;;;;;17.10;15.33;;;27.80;86.40;;;;;;4998305;28;20488;-79
2023/05/22 10:47:34;;;;;;;18.88;16.73;;;27.90;78.80;;;;;;4996609;28;20385;-79
2023/05/22 10:50:08;;;;;;;18.17;16.27;;;27.90;88.80;;;;;;4989952;28;20566;-79
2023/05/22 10:52:44;;;;;;;18.17;16.25;;;28.20;75.30;;;;;;4988133;28;20053;-79
2023/05/22 10:55:30;;;;;;;17.73;15.90;;;28.10;90.90;;;;;;4998847;28;20045;-80
2023/05/22 10:58:14;;;;;;;17.15;15.35;;;28.50;97.80;;;;;;5017234;28;20045;-80
2023/05/22 11:00:49;;;;;;;18.33;16.42;;;29.00;83.60;;;;;;5001315;28;20037;-79
2023/05/22 11:03:24;;;;;;;17.42;15.70;;;28.90;84.50;;;;;;5006976;28;20042;-80
2023/05/22 11:05:56;;;;;;;17.45;15.65;;;29.20;77.40;;;;;;4996863;28;20129;-79
2023/05/22 11:08:32;;;;;;;18.15;16.33;;;29.20;82.70;;;;;;5000146;28;20052;-79
2023/05/22 11:11:12;;;;;;;16.52;14.85;;;29.40;91.20;;;;;;5018408;28;20037;-79
2023/05/22 11:13:51;;;;;;;16.75;15.02;;;29.80;91.10;;;;;;5017362;28;20049;-79
2023/05/22 11:16:20;;;;;;;15.75;14.27;;;30.40;86.60;;;;;;4986437;28;20427;-79
2023/05/22 11:19:09;;;;;;;16.05;14.50;;;30.90;81.40;;;;;;5005265;28;20033;-79
2023/05/22 11:21:50;;;;;;;16.25;14.80;;;31.40;75.60;;;;;;5001064;28;20041;-80
2023/05/22 11:24:24;;;;;;;16.40;14.82;;;31.70;69.40;;;;;;5002590;28;20041;-80
2023/05/22 11:27:06;;;;;;;17.67;16.00;;;31.50;67.10;;;;;;5000763;28;20069;-80
2023/05/22 11:29:35;;;;;;;20.95;16.77;;;31.30;64.00;;;;;;5000186;28;20045;-80
2023/05/22 11:32:19;;;;;;;16.13;14.63;;;30.70;65.70;;;;;;4994369;28;20136;-79
2023/05/22 11:34:51;;;;;;;17.55;15.63;;;30.40;73.90;;;;;;5000820;28;20496;-79
2023/05/22 11:37:23;;;;;;;20.00;17.85;;;30.80;75.20;;;;;;5000336;28;20132;-79
2023/05/22 11:40:00;;;;;;;17.63;15.82;;;31.10;71.00;;;;;;5007237;28;20041;-79
2023/05/22 11:42:32;;;;;;;17.77;15.02;;;31.30;75.60;;;;;;5017423;28;20103;-80
2023/05/22 11:45:06;;;;;;;16.88;15.20;;;31.90;73.00;;;;;;4992617;28;20045;-80
2023/05/22 11:47:36;;;;;;;17.83;16.23;;;32.40;62.10;;;;;;5017182;28;20041;-80
2023/05/22 11:50:10;;;;;;;16.42;14.98;;;32.20;65.20;;;;;;4998573;28;20056;-80
2023/05/22 11:52:41;;;;;;;15.95;14.25;;;32.10;67.40;;;;;;5017177;28;20080;-80
2023/05/22 11:55:11;;;;;;;15.93;14.52;;;32.40;62.50;;;;;;4999433;28;20095;-79
2023/05/22 11:57:46;;;;;;;16.05;14.40;;;32.30;63.00;;;;;;5000166;28;20052;-79
2023/05/22 12:00:29;;;;;;;15.40;14.07;;;32.10;63.80;;;;;;5000713;28;20056;-79
2023/05/22 12:03:10;;;;;;;16.45;14.75;;;32.40;64.20;;;;;;4984352;28;20192;-80
2023/05/22 12:05:40;;;;;;;15.60;14.18;;;32.50;59.60;;;;;;5000095;28;20147;-79
2023/05/22 12:08:08;;;;;;;17.92;16.17;;;32.50;62.40;;;;;;4982550;28;20146;-79
2023/05/22 12:10:47;;;;;;;17.42;15.70;;;32.60;60.90;;;;;;4980707;28;20073;-80
2023/05/22 12:13:14;;;;;;;16.15;14.55;;;32.60;57.50;;;;;;4996818;28;20100;-80
2023/05/22 12:15:45;;;;;;;15.63;14.07;;;32.20;62.00;;;;;;4980092;28;20077;-79
2023/05/22 12:18:19;;;;;;;14.90;13.50;;;32.20;62.90;;;;;;4987074;28;20429;-79
2023/05/22 12:20:53;;;;;;;15.50;13.85;;;32.50;64.10;;;;;;4994561;28;20041;-79
2023/05/22 12:23:24;;;;;;;14.73;13.35;;;32.80;65.40;;;;;;5015413;28;20136;-80
2023/05/22 12:26:07;;;;;;;14.27;12.88;;;33.20;63.40;;;;;;5000548;28;20068;-79
2023/05/22 12:28:40;;;;;;;14.80;13.50;;;33.60;62.90;;;;;;4999940;28;20454;-79
2023/05/22 12:31:07;;;;;;;14.85;13.55;;;33.80;63.60;;;;;;4999771;28;20048;-79
2023/05/22 12:33:33;;;;;;;14.90;13.60;;;34.00;63.70;;;;;;4998649;28;20042;-79
2023/05/22 12:36:09;;;;;;;14.50;13.13;;;34.10;59.90;;;;;;4999265;28;20033;-79
2023/05/22 12:38:40;;;;;;;13.75;12.50;;;34.40;62.20;;;;;;5015801;28;20450;-79
2023/05/22 12:41:10;;;;;;;12.60;11.32;;;34.70;59.70;;;;;;4979525;28;20050;-79
2023/05/22 12:43:39;;;;;;;12.75;11.63;;;34.20;59.20;;;;;;4979586;28;20048;-79
2023/05/22 12:46:16;;;;;;;12.80;11.60;;;33.70;61.70;;;;;;4979383;28;20129;-79
2023/05/22 12:48:47;;;;;;;12.63;11.52;;;33.80;61.40;;;;;;4979801;28;20095;-79
2023/05/22 12:51:19;;;;;;;12.10;11.10;;;34.30;61.90;;;;;;4980269;28;20104;-79
2023/05/22 12:53:45;;;;;;;13.55;12.45;;;34.30;59.60;;;;;;4979923;28;20073;-77
2023/05/22 12:56:20;;;;;;;13.60;12.40;;;33.70;59.10;;;;;;4978641;28;20087;-77
2023/05/22 12:58:49;;;;;;;13.60;12.40;;;32.90;57.80;;;;;;4979994;28;20513;-77
2023/05/22 13:01:23;;;;;;;14.88;13.52;;;32.10;60.60;;;;;;4977970;28;20046;-76
2023/05/22 13:03:55;;;;;;;15.40;14.10;;;31.40;62.70;;;;;;4994537;28;20075;-76
2023/05/22 13:06:26;;;;;;;15.23;13.88;;;30.60;64.00;;;;;;4979272;28;20034;-77
2023/05/22 13:08:55;;;;;;;14.60;13.30;;;29.70;65.40;;;;;;4978921;28;20041;-76
2023/05/22 13:11:25;;;;;;;15.38;13.80;;;29.20;67.30;;;;;;4959116;28;20145;-77
2023/05/22 13:13:53;;;;;;;14.98;13.77;;;29.60;71.30;;;;;;4975274;28;20053;-77
2023/05/22 13:16:25;;;;;;;14.40;13.00;;;30.50;76.70;;;;;;4992181;28;20034;-77
2023/05/22 13:18:54;;;;;;;14.00;12.60;;;31.30;68.50;;;;;;4975867;28;20144;-77
2023/05/22 13:21:30;;;;;;;14.80;13.48;;;31.50;69.20;;;;;;4991643;28;20081;-77
2023/05/22 13:24:02;;;;;;;15.25;13.73;;;31.40;68.30;;;;;;4991605;28;20074;-76
2023/05/22 13:26:30;;;;;;;15.43;14.13;;;31.80;70.80;;;;;;4983990;28;20050;-76
2023/05/22 13:29:10;;;;;;;15.88;14.38;;;32.30;68.90;;;;;;4975904;28;20042;-77
2023/05/22 13:31:44;;;;;;;15.90;14.48;;;32.30;64.90;;;;;;4960596;28;20049;-76
2023/05/22 13:34:16;;;;;;;15.65;14.32;;;32.20;63.70;;;;;;4959220;28;20189;-77
2023/05/22 13:37:03;;;;;;;16.92;15.23;;;32.10;65.00;;;;;;4963476;28;20092;-77
2023/05/22 13:39:29;;;;;;;16.20;14.63;;;32.00;63.90;;;;;;4978481;28;20049;-76
2023/05/22 13:41:58;;;;;;;16.30;14.90;;;32.00;65.10;;;;;;4978485;28;20125;-77
2023/05/22 13:44:25;;;;;;;16.17;14.63;;;31.80;63.60;;;;;;4979025;28;20038;-76